createdAt,value
2019-05-25T00:00:41.043Z,15.21
2019-05-25T00:03:11.327Z,15.17
2019-05-25T00:05:41.590Z,15.15
2019-05-25T00:08:11.975Z,15.16
2019-05-25T00:10:42.251Z,15.15
2019-05-25T00:13:12.819Z,15.14
2019-05-25T00:15:43.179Z,15.14
2019-05-25T00:18:13.816Z,15.09
2019-05-25T00:20:44.100Z,15.03
2019-05-25T00:23:14.567Z,15.01
2019-05-25T00:25:44.885Z,14.94
2019-05-25T00:28:15.106Z,14.86
2019-05-25T00:30:45.503Z,14.78
2019-05-25T00:33:15.874Z,14.67
2019-05-25T00:35:46.218Z,14.61
2019-05-25T00:38:17.949Z,14.56
2019-05-25T00:40:49.214Z,14.55
2019-05-25T00:43:20.739Z,14.55
2019-05-25T00:45:51.040Z,14.53
2019-05-25T00:48:21.258Z,14.53
2019-05-25T00:50:51.889Z,14.54
2019-05-25T00:53:22.217Z,14.50
2019-05-25T00:55:52.748Z,14.49
2019-05-25T00:58:22.979Z,14.48
2019-05-25T01:00:53.247Z,14.50
2019-05-25T01:03:23.512Z,14.53
2019-05-25T01:05:53.781Z,14.54
2019-05-25T01:08:24.787Z,14.58
2019-05-25T01:10:55.150Z,14.60
2019-05-25T01:13:25.433Z,14.64
2019-05-25T01:15:55.755Z,14.70
2019-05-25T01:18:26.386Z,14.75
2019-05-25T01:20:56.659Z,14.77
2019-05-25T01:23:26.934Z,14.82
2019-05-25T01:25:57.197Z,14.85
2019-05-25T01:28:27.491Z,14.85
2019-05-25T01:30:57.685Z,14.83
2019-05-25T01:33:28.041Z,14.85
2019-05-25T01:35:58.736Z,14.80
2019-05-25T01:38:28.983Z,14.69
2019-05-25T01:40:59.761Z,14.65
2019-05-25T01:43:30.048Z,14.61
2019-05-25T01:46:00.307Z,14.56
2019-05-25T01:48:30.903Z,14.50
2019-05-25T01:51:01.159Z,14.47
2019-05-25T01:53:32.781Z,14.43
2019-05-25T01:56:03.051Z,14.46
2019-05-25T01:58:33.279Z,14.50
2019-05-25T02:01:03.487Z,14.48
2019-05-25T02:03:33.903Z,14.55
2019-05-25T02:06:04.514Z,14.54
2019-05-25T02:08:34.837Z,14.51
2019-05-25T02:11:05.109Z,14.44
2019-05-25T02:13:35.378Z,14.41
2019-05-25T02:19:36.748Z,14.33
2019-05-25T02:22:07.073Z,14.31
2019-05-25T02:24:37.288Z,14.28
2019-05-25T02:27:07.557Z,14.29
2019-05-25T02:29:37.846Z,14.27
2019-05-25T02:32:08.478Z,14.30
2019-05-25T02:34:38.915Z,14.32
2019-05-25T02:37:10.532Z,14.31
2019-05-25T02:39:40.849Z,14.29
2019-05-25T02:42:11.412Z,14.32
2019-05-25T02:44:41.707Z,14.26
2019-05-25T02:47:11.898Z,14.22
2019-05-25T02:49:42.265Z,14.17
2019-05-25T02:52:12.813Z,14.11
2019-05-25T02:54:43.454Z,14.08
2019-05-25T02:57:13.769Z,14.04
2019-05-25T02:59:44.087Z,14.01
2019-05-25T03:02:14.289Z,13.98
2019-05-25T03:04:44.663Z,13.97
2019-05-25T03:07:15.479Z,13.97
2019-05-25T03:09:47.714Z,13.94
2019-05-25T03:12:18.817Z,13.97
2019-05-25T03:14:49.426Z,13.91
2019-05-25T03:17:19.717Z,13.88
2019-05-25T03:19:50.278Z,13.84
2019-05-25T03:22:20.573Z,13.79
2019-05-25T03:24:50.832Z,13.72
2019-05-25T03:27:21.221Z,13.69
2019-05-25T03:29:51.892Z,13.61
2019-05-25T03:32:22.215Z,13.53
2019-05-25T03:34:52.577Z,13.48
2019-05-25T03:37:23.204Z,13.46
2019-05-25T03:39:53.447Z,13.45
2019-05-25T03:42:24.023Z,13.43
2019-05-25T03:44:54.212Z,13.45
2019-05-25T03:47:24.467Z,13.40
2019-05-25T03:49:55.228Z,13.36
2019-05-25T03:52:25.939Z,13.35
2019-05-25T03:54:56.152Z,13.31
2019-05-25T03:57:26.474Z,13.27
2019-05-25T03:59:56.740Z,13.25
2019-05-25T04:02:27.029Z,13.30
2019-05-25T04:04:57.283Z,13.37
2019-05-25T04:07:27.579Z,13.45
2019-05-25T04:09:57.947Z,13.50
2019-05-25T04:12:29.166Z,13.58
2019-05-25T04:14:59.513Z,13.64
2019-05-25T04:17:29.829Z,13.78
2019-05-25T04:20:00.022Z,13.89
2019-05-25T04:22:30.354Z,14.00
2019-05-25T04:25:00.624Z,14.18
2019-05-25T04:27:30.884Z,14.33
2019-05-25T04:30:01.350Z,14.49
2019-05-25T04:32:31.794Z,14.61
2019-05-25T04:35:02.055Z,14.75
2019-05-25T04:37:32.298Z,14.79
2019-05-25T04:40:02.579Z,14.83
2019-05-25T04:42:32.833Z,14.87
2019-05-25T04:45:03.110Z,14.90
2019-05-25T04:47:33.401Z,14.95
2019-05-25T04:50:03.647Z,15.01
2019-05-25T04:52:33.929Z,15.08
2019-05-25T04:55:04.585Z,15.15
2019-05-25T04:57:34.930Z,15.24
2019-05-25T05:00:06.895Z,15.30
2019-05-25T05:02:37.181Z,15.40
2019-05-25T05:05:07.748Z,15.46
2019-05-25T05:07:38.355Z,15.60
2019-05-25T05:10:09.217Z,15.63
2019-05-25T05:12:39.701Z,15.65
2019-05-25T05:15:10.180Z,15.72
2019-05-25T05:17:40.761Z,15.66
2019-05-25T05:20:11.331Z,15.66
2019-05-25T05:22:42.241Z,15.76
2019-05-25T05:25:12.983Z,15.83
2019-05-25T05:27:43.332Z,15.85
2019-05-25T05:30:14.050Z,15.90
2019-05-25T05:32:44.538Z,15.99
2019-05-25T05:35:14.839Z,15.98
2019-05-25T05:37:46.417Z,15.93
2019-05-25T05:40:16.823Z,15.94
2019-05-25T05:42:49.627Z,15.97
2019-05-25T05:45:19.931Z,15.98
2019-05-25T05:47:52.452Z,16.09
2019-05-25T05:50:22.812Z,16.18
2019-05-25T05:52:54.826Z,16.33
2019-05-25T05:55:31.983Z,16.45
2019-05-25T05:58:02.616Z,16.60
2019-05-25T06:00:34.189Z,16.75
2019-05-25T06:03:04.741Z,16.95
2019-05-25T06:05:35.001Z,17.18
2019-05-25T06:08:05.279Z,17.38
2019-05-25T06:10:35.559Z,17.60
2019-05-25T06:13:05.842Z,17.89
2019-05-25T06:15:36.105Z,18.13
2019-05-25T06:18:06.409Z,17.99
2019-05-25T06:20:36.900Z,17.96
2019-05-25T06:23:11.680Z,17.90
2019-05-25T06:25:39.438Z,17.64
2019-05-25T06:28:09.713Z,17.46
2019-05-25T06:30:39.993Z,17.21
2019-05-25T06:33:10.280Z,17.14
2019-05-25T06:35:40.602Z,17.07
2019-05-25T06:38:11.949Z,16.89
2019-05-25T06:40:43.583Z,16.91
2019-05-25T06:43:14.247Z,16.95
2019-05-25T06:45:44.776Z,16.98
2019-05-25T06:48:15.098Z,16.92
2019-05-25T06:50:45.487Z,16.94
2019-05-25T06:53:16.059Z,17.03
2019-05-25T06:55:46.510Z,16.98
2019-05-25T06:58:16.831Z,16.96
2019-05-25T07:00:47.123Z,16.97
2019-05-25T07:03:17.440Z,17.05
2019-05-25T07:05:47.755Z,17.07
2019-05-25T07:08:18.009Z,17.09
2019-05-25T07:10:48.686Z,17.03
2019-05-25T07:13:19.040Z,17.05
2019-05-25T07:15:49.902Z,17.00
2019-05-25T07:18:20.851Z,17.07
2019-05-25T07:20:51.815Z,17.12
2019-05-25T07:23:22.035Z,17.13
2019-05-25T07:25:52.253Z,17.16
2019-05-25T07:28:22.547Z,17.29
2019-05-25T07:30:52.751Z,17.38
2019-05-25T07:33:23.524Z,17.43
2019-05-25T07:35:53.730Z,17.61
2019-05-25T07:38:24.088Z,17.75
2019-05-25T07:40:54.306Z,17.95
2019-05-25T07:43:25.640Z,17.99
2019-05-25T07:45:56.283Z,18.01
2019-05-25T07:48:26.851Z,18.15
2019-05-25T07:50:57.573Z,18.34
2019-05-25T07:53:28.178Z,18.32
2019-05-25T07:55:58.480Z,18.48
2019-05-25T07:58:29.152Z,18.47
2019-05-25T08:00:59.422Z,18.65
2019-05-25T08:03:29.655Z,18.69
2019-05-25T08:06:00.281Z,18.54
2019-05-25T08:08:30.549Z,18.51
2019-05-25T08:11:00.907Z,18.76
2019-05-25T08:13:31.735Z,18.85
2019-05-25T08:16:02.004Z,18.98
2019-05-25T08:18:32.253Z,19.03
2019-05-25T08:21:02.591Z,18.89
2019-05-25T08:23:32.797Z,18.99
2019-05-25T08:26:03.079Z,19.26
2019-05-25T08:28:36.416Z,19.33
2019-05-25T08:31:06.702Z,19.45
2019-05-25T08:33:37.433Z,19.70
2019-05-25T08:36:07.757Z,20.06
2019-05-25T08:38:37.976Z,20.31
2019-05-25T08:41:08.305Z,20.42
2019-05-25T08:43:38.839Z,20.58
2019-05-25T08:46:09.080Z,20.68
2019-05-25T08:48:40.008Z,20.79
2019-05-25T08:51:10.403Z,20.78
2019-05-25T08:53:42.392Z,20.92
2019-05-25T08:56:13.005Z,21.01
2019-05-25T08:58:48.521Z,21.10
2019-05-25T09:01:15.863Z,21.22
2019-05-25T09:03:46.204Z,21.56
2019-05-25T09:06:17.185Z,22.15
2019-05-25T09:08:47.785Z,22.65
2019-05-25T09:11:18.112Z,22.78
2019-05-25T09:13:48.543Z,23.40
2019-05-25T09:16:19.409Z,23.85
2019-05-25T09:18:49.728Z,23.78
2019-05-25T09:21:19.925Z,23.62
2019-05-25T09:23:50.487Z,23.59
2019-05-25T09:26:21.177Z,23.80
2019-05-25T09:29:04.085Z,24.25
2019-05-25T09:31:24.434Z,24.37
2019-05-25T09:33:54.843Z,24.88
2019-05-25T09:36:25.872Z,24.96
2019-05-25T09:38:56.494Z,25.15
2019-05-25T09:41:26.830Z,25.29
2019-05-25T09:43:57.995Z,25.43
2019-05-25T09:46:28.300Z,25.11
2019-05-25T09:48:58.584Z,24.47
2019-05-25T09:51:28.827Z,24.23
2019-05-25T09:53:59.130Z,24.34
2019-05-25T09:56:29.573Z,25.19
2019-05-25T09:59:00.153Z,26.06
2019-05-25T10:01:30.876Z,26.50
2019-05-25T10:04:01.457Z,27.10
2019-05-25T10:06:32.042Z,27.27
2019-05-25T10:09:02.350Z,27.10
2019-05-25T10:11:32.655Z,27.34
2019-05-25T10:14:02.906Z,27.61
2019-05-25T10:16:33.548Z,27.79
2019-05-25T10:19:03.858Z,27.50
2019-05-25T10:21:34.322Z,28.03
2019-05-25T10:24:04.648Z,27.94
2019-05-25T10:26:35.075Z,28.25
2019-05-25T10:29:07.593Z,28.11
2019-05-25T10:31:38.554Z,28.52
2019-05-25T10:34:10.656Z,28.97
2019-05-25T10:36:41.874Z,28.65
2019-05-25T10:39:12.500Z,29.14
2019-05-25T10:41:43.337Z,29.64
2019-05-25T10:44:15.452Z,29.97
2019-05-25T10:46:45.727Z,30.03
2019-05-25T10:49:16.422Z,30.07
2019-05-25T10:51:47.218Z,29.74
2019-05-25T10:54:17.655Z,29.57
2019-05-25T10:56:47.905Z,29.79
2019-05-25T10:59:18.288Z,30.24
2019-05-25T11:01:48.963Z,30.47
2019-05-25T11:04:19.217Z,31.57
2019-05-25T11:06:49.565Z,31.82
2019-05-25T11:09:19.797Z,32.64
2019-05-25T11:11:50.125Z,32.52
2019-05-25T11:14:20.424Z,32.86
2019-05-25T11:16:50.746Z,33.28
2019-05-25T11:19:24.016Z,32.98
2019-05-25T11:21:53.032Z,33.17
2019-05-25T11:24:23.266Z,34.08
2019-05-25T11:26:53.563Z,33.89
2019-05-25T11:29:25.250Z,31.31
2019-05-25T11:32:00.033Z,31.53
2019-05-25T11:34:27.430Z,33.25
2019-05-25T11:36:57.740Z,33.80
2019-05-25T11:39:27.981Z,32.77
2019-05-25T11:41:58.274Z,31.37
2019-05-25T11:44:28.514Z,29.52
2019-05-25T11:46:59.002Z,28.05
2019-05-25T11:49:29.525Z,28.28
2019-05-25T11:51:59.902Z,29.59
2019-05-25T11:54:30.131Z,27.94
2019-05-25T11:57:00.898Z,26.79
2019-05-25T11:59:31.144Z,27.61
2019-05-25T12:02:02.421Z,30.05
2019-05-25T12:04:32.993Z,30.55
2019-05-25T12:07:03.615Z,30.38
2019-05-25T12:09:33.903Z,30.89
2019-05-25T12:12:04.463Z,29.01
2019-05-25T12:14:35.098Z,27.22
2019-05-25T12:17:05.506Z,26.42
2019-05-25T12:19:35.742Z,25.92
2019-05-25T12:22:06.039Z,27.48
2019-05-25T12:24:36.704Z,28.91
2019-05-25T12:27:07.092Z,30.63
2019-05-25T12:29:37.379Z,31.85
2019-05-25T12:32:07.734Z,32.40
2019-05-25T12:34:38.310Z,33.44
2019-05-25T12:37:08.600Z,33.87
2019-05-25T12:39:40.409Z,34.56
2019-05-25T12:42:11.182Z,32.19
2019-05-25T12:44:41.743Z,30.62
2019-05-25T12:47:12.075Z,29.78
2019-05-25T12:49:50.538Z,30.17
2019-05-25T12:52:15.454Z,29.67
2019-05-25T12:54:45.783Z,31.38
2019-05-25T12:57:16.061Z,31.52
2019-05-25T12:59:46.301Z,29.32
2019-05-25T13:02:16.577Z,27.60
2019-05-25T13:04:46.885Z,27.05
2019-05-25T13:07:18.156Z,26.14
2019-05-25T13:09:48.480Z,26.27
2019-05-25T13:12:18.789Z,25.99
2019-05-25T13:14:49.087Z,25.92
2019-05-25T13:17:19.341Z,26.75
2019-05-25T13:19:50.715Z,31.45
2019-05-25T13:22:21.005Z,33.34
2019-05-25T13:24:51.266Z,35.67
2019-05-25T13:27:21.561Z,36.30
2019-05-25T13:29:51.757Z,38.34
2019-05-25T13:32:22.029Z,37.67
2019-05-25T13:34:52.323Z,38.55
2019-05-25T13:37:22.574Z,34.85
2019-05-25T13:39:53.125Z,33.10
2019-05-25T13:42:23.332Z,37.00
2019-05-25T13:44:53.704Z,37.45
2019-05-25T13:47:23.980Z,35.06
2019-05-25T13:49:54.184Z,33.90
2019-05-25T13:52:24.423Z,35.60
2019-05-25T13:54:54.692Z,37.17
2019-05-25T13:57:24.981Z,39.69
2019-05-25T13:59:55.636Z,37.87
2019-05-25T14:02:25.919Z,36.93
2019-05-25T14:04:56.339Z,36.83
2019-05-25T14:07:26.582Z,36.83
2019-05-25T14:09:57.177Z,34.39
2019-05-25T14:12:27.851Z,34.06
2019-05-25T14:14:58.103Z,34.85
2019-05-25T14:17:28.384Z,37.01
2019-05-25T14:19:58.658Z,39.55
2019-05-25T14:22:28.942Z,38.20
2019-05-25T14:24:59.186Z,36.22
2019-05-25T14:27:29.496Z,36.91
2019-05-25T14:29:59.756Z,33.21
2019-05-25T14:32:30.053Z,31.42
2019-05-25T14:35:00.658Z,30.11
2019-05-25T14:37:30.915Z,30.89
2019-05-25T14:40:01.198Z,33.51
2019-05-25T14:42:31.382Z,33.81
2019-05-25T14:45:01.940Z,33.24
2019-05-25T14:47:32.213Z,33.38
2019-05-25T14:50:02.501Z,31.80
2019-05-25T14:52:32.865Z,29.02
2019-05-25T14:55:03.181Z,28.57
2019-05-25T14:57:33.414Z,30.93
2019-05-25T15:00:03.705Z,34.41
2019-05-25T15:02:33.960Z,35.67
2019-05-25T15:05:04.402Z,32.64
2019-05-25T15:07:34.590Z,32.57
2019-05-25T15:10:05.361Z,33.94
2019-05-25T15:12:36.773Z,31.48
2019-05-25T15:15:07.893Z,29.81
2019-05-25T15:17:38.173Z,28.26
2019-05-25T15:20:10.788Z,26.97
2019-05-25T15:22:41.079Z,25.75
2019-05-25T15:25:12.197Z,25.03
2019-05-25T15:27:42.535Z,24.58
2019-05-25T15:30:13.219Z,24.05
2019-05-25T15:32:43.433Z,23.46
2019-05-25T15:35:14.195Z,23.08
2019-05-25T15:37:44.527Z,22.85
2019-05-25T15:40:15.412Z,22.60
2019-05-25T15:42:45.733Z,22.41
2019-05-25T15:47:45.130Z,22.08
2019-05-25T15:50:17.435Z,21.92
2019-05-25T15:52:47.821Z,21.79
2019-05-25T15:55:18.216Z,21.70
2019-05-25T15:57:48.801Z,21.54
2019-05-25T16:00:19.797Z,21.34
2019-05-25T16:02:50.178Z,21.24
2019-05-25T16:05:20.858Z,21.15
2019-05-25T16:07:52.523Z,21.08
2019-05-25T16:10:22.838Z,21.06
2019-05-25T16:12:53.216Z,20.97
2019-05-25T16:15:29.656Z,20.62
2019-05-25T16:18:00.305Z,20.31
2019-05-25T16:20:30.892Z,19.76
2019-05-25T16:23:01.238Z,19.52
2019-05-25T16:25:31.860Z,19.42
2019-05-25T16:28:02.117Z,19.45
2019-05-25T16:30:32.315Z,19.44
2019-05-25T16:33:13.148Z,19.30
2019-05-25T16:35:34.880Z,19.22
2019-05-25T16:38:05.388Z,18.96
2019-05-25T16:40:35.846Z,18.78
2019-05-25T16:43:06.105Z,18.51
2019-05-25T16:45:36.390Z,18.25
2019-05-25T16:48:06.659Z,17.95
2019-05-25T16:50:37.248Z,17.88
2019-05-25T16:53:07.518Z,18.02
2019-05-25T16:55:38.111Z,18.13
2019-05-25T16:58:08.385Z,18.30
2019-05-25T17:00:38.830Z,18.33
2019-05-25T17:03:09.018Z,18.67
2019-05-25T17:05:39.309Z,18.95
2019-05-25T17:08:09.562Z,19.09
2019-05-25T17:10:39.967Z,19.04
2019-05-25T17:13:10.207Z,19.08
2019-05-25T17:15:40.494Z,18.84
2019-05-25T17:18:10.904Z,18.57
2019-05-25T17:20:41.260Z,18.47
2019-05-25T17:23:11.981Z,18.39
2019-05-25T17:25:42.201Z,18.36
2019-05-25T17:28:12.746Z,18.19
2019-05-25T17:30:45.352Z,18.24
2019-05-25T17:33:15.719Z,18.39
2019-05-25T17:35:46.881Z,18.34
2019-05-25T17:38:17.183Z,18.39
2019-05-25T17:40:47.962Z,18.44
2019-05-25T17:43:18.776Z,18.60
2019-05-25T17:45:49.347Z,18.82
2019-05-25T17:48:20.295Z,18.95
2019-05-25T17:50:50.575Z,19.21
2019-05-25T17:53:21.398Z,19.52
2019-05-25T17:55:51.906Z,19.51
2019-05-25T17:58:22.200Z,19.46
2019-05-25T18:00:52.418Z,19.39
2019-05-25T18:03:22.739Z,19.22
2019-05-25T18:05:53.020Z,18.84
2019-05-25T18:08:23.548Z,18.61
2019-05-25T18:10:54.671Z,18.37
2019-05-25T18:13:28.748Z,18.21
2019-05-25T18:15:57.505Z,17.95
2019-05-25T18:18:28.146Z,17.57
2019-05-25T18:20:58.509Z,17.41
2019-05-25T18:23:29.403Z,17.20
2019-05-25T18:25:59.799Z,17.04
2019-05-25T18:28:30.098Z,16.91
2019-05-25T18:31:00.483Z,16.93
2019-05-25T18:33:31.519Z,16.78
2019-05-25T18:36:02.087Z,16.72
2019-05-25T18:38:32.339Z,16.73
2019-05-25T18:41:02.523Z,16.62
2019-05-25T18:43:32.816Z,16.67
2019-05-25T18:46:03.827Z,16.65
2019-05-25T18:48:34.543Z,16.56
2019-05-25T18:51:05.937Z,16.59
2019-05-25T18:53:36.211Z,16.61
2019-05-25T18:56:07.225Z,16.61
2019-05-25T18:58:37.487Z,16.59
2019-05-25T19:01:08.170Z,16.57
2019-05-25T19:03:38.377Z,16.49
2019-05-25T19:06:08.643Z,16.42
2019-05-25T19:08:38.961Z,16.43
2019-05-25T19:11:10.318Z,16.39
2019-05-25T19:13:40.613Z,16.39
2019-05-25T19:16:11.240Z,16.41
2019-05-25T19:18:41.478Z,16.38
2019-05-25T19:21:12.002Z,16.30
2019-05-25T19:23:42.848Z,16.30
2019-05-25T19:26:13.094Z,16.21
2019-05-25T19:28:44.798Z,16.16
2019-05-25T19:31:15.184Z,16.11
2019-05-25T19:33:45.525Z,16.05
2019-05-25T19:36:15.724Z,16.00
2019-05-25T19:38:46.645Z,15.95
2019-05-25T19:41:17.258Z,15.93
2019-05-25T19:43:47.506Z,15.97
2019-05-25T19:46:18.938Z,15.95
2019-05-25T19:48:49.317Z,15.93
2019-05-25T19:51:20.263Z,15.87
2019-05-25T19:53:50.522Z,15.92
2019-05-25T19:56:20.800Z,15.96
2019-05-25T19:58:51.068Z,16.00
2019-05-25T20:01:22.107Z,16.02
2019-05-25T20:03:52.425Z,16.02
2019-05-25T20:06:23.064Z,15.96
2019-05-25T20:08:53.287Z,15.94
2019-05-25T20:11:23.542Z,15.94
2019-05-25T20:13:53.843Z,15.93
2019-05-25T20:16:25.105Z,15.89
2019-05-25T20:18:56.076Z,15.90
2019-05-25T20:21:26.283Z,15.86
2019-05-25T20:23:56.563Z,15.85
2019-05-25T20:26:27.090Z,15.84
2019-05-25T20:28:57.310Z,15.85
2019-05-25T20:31:28.323Z,15.85
2019-05-25T20:33:58.578Z,15.83
2019-05-25T20:36:28.914Z,15.82
2019-05-25T20:38:59.850Z,15.73
2019-05-25T20:41:30.141Z,15.70
2019-05-25T20:44:00.386Z,15.60
2019-05-25T20:46:30.753Z,15.55
2019-05-25T20:49:01.456Z,15.52
2019-05-25T20:51:32.106Z,15.48
2019-05-25T20:54:02.434Z,15.45
2019-05-25T20:56:32.662Z,15.41
2019-05-25T20:59:02.952Z,15.41
2019-05-25T21:01:33.671Z,15.39
2019-05-25T21:04:04.005Z,15.49
2019-05-25T21:06:34.605Z,15.48
2019-05-25T21:09:06.455Z,15.53
2019-05-25T21:11:36.666Z,15.50
2019-05-25T21:14:06.942Z,15.46
2019-05-25T21:16:37.271Z,15.33
2019-05-25T21:19:07.811Z,15.21
2019-05-25T21:21:38.037Z,15.11
2019-05-25T21:24:09.374Z,15.01
2019-05-25T21:26:40.013Z,15.01
2019-05-25T21:29:10.333Z,15.00
2019-05-25T21:31:40.592Z,15.03
2019-05-25T21:34:11.190Z,15.15
2019-05-25T21:36:43.304Z,15.14
2019-05-25T21:39:13.346Z,15.12
2019-05-25T21:41:44.236Z,15.13
2019-05-25T21:44:14.548Z,15.09
2019-05-25T21:46:44.842Z,14.96
2019-05-25T21:49:15.115Z,14.95
2019-05-25T21:51:45.388Z,14.87
2019-05-25T21:54:16.042Z,14.84
2019-05-25T21:56:46.308Z,14.76
2019-05-25T21:59:16.601Z,14.63
2019-05-25T22:01:47.054Z,14.49
2019-05-25T22:04:17.656Z,14.36
2019-05-25T22:06:48.399Z,14.23
2019-05-25T22:09:19.018Z,14.15
2019-05-25T22:11:49.358Z,14.00
2019-05-25T22:14:19.665Z,13.86
2019-05-25T22:16:50.018Z,13.81
2019-05-25T22:19:20.316Z,13.86
2019-05-25T22:21:51.013Z,13.87
2019-05-25T22:24:21.228Z,13.83
2019-05-25T22:26:51.430Z,13.75
2019-05-25T22:29:21.710Z,13.66
2019-05-25T22:31:52.519Z,13.54
2019-05-25T22:34:22.883Z,13.44
2019-05-25T22:36:53.429Z,13.41
2019-05-25T22:39:23.701Z,13.33
2019-05-25T22:41:53.946Z,13.38
2019-05-25T22:44:24.303Z,13.36
2019-05-25T22:46:54.536Z,13.34
2019-05-25T22:49:24.763Z,13.25
2019-05-25T22:51:55.356Z,13.24
2019-05-25T22:54:25.881Z,13.41
2019-05-25T22:56:56.337Z,13.40
2019-05-25T22:59:26.571Z,13.32
2019-05-25T23:01:56.843Z,13.31
2019-05-25T23:04:27.484Z,13.26
2019-05-25T23:06:58.675Z,13.19
2019-05-25T23:09:29.003Z,13.08
2019-05-25T23:12:00.191Z,12.99
2019-05-25T23:14:30.727Z,12.98
2019-05-25T23:17:00.999Z,13.04
2019-05-25T23:19:31.320Z,13.05
2019-05-25T23:22:01.594Z,13.03
2019-05-25T23:24:32.238Z,13.00
2019-05-25T23:27:03.389Z,12.96
2019-05-25T23:29:33.651Z,12.91
2019-05-25T23:32:04.028Z,12.86
2019-05-25T23:34:34.337Z,12.85
2019-05-25T23:37:14.739Z,12.87
2019-05-25T23:39:37.735Z,12.89
2019-05-25T23:42:08.007Z,12.85
2019-05-25T23:44:38.259Z,12.85
2019-05-25T23:47:08.533Z,12.81
2019-05-25T23:49:39.774Z,12.80
2019-05-25T23:52:09.996Z,12.76
2019-05-25T23:54:40.269Z,12.64
2019-05-25T23:57:10.547Z,12.64
2019-05-25T23:59:40.845Z,12.60
